Time;durP1;ratioP1;P1;durP2;ratioP2;P2;SDS_P1;SDS_P2;PMS_P1;PMS_P2;Temp;Humidity;BMP_temperature;BMP_pressure;BME280_temperature;BME280_humidity;BME280_pressure;Samples;Min_cycle;Max_cycle;Signal;HPM_P1;HPM_P2
2021/10/19 00:01:32;;;;;;;24.30;13.53;;;;;;;;;;4974732;28;20716;-77
2021/10/19 00:04:36;;;;;;;18.37;13.80;;;;;;;;;;4974335;28;20225;-77
2021/10/19 00:07:41;;;;;;;17.83;13.00;;;;;;;;;;4987566;28;20201;-77
2021/10/19 00:10:45;;;;;;;23.07;13.00;;;;;;;;;;4991086;28;20241;-77
2021/10/19 00:13:49;;;;;;;18.23;13.20;;;;;;;;;;4981440;28;20179;-77
2021/10/19 00:16:53;;;;;;;19.20;13.47;;;;;;;;;;4986938;28;20191;-77
2021/10/19 00:19:58;;;;;;;14.37;11.67;;;;;;;;;;4980206;28;20193;-76
2021/10/19 00:23:02;;;;;;;41.17;13.20;;;;;;;;;;4993741;28;20201;-76
2021/10/19 00:26:06;;;;;;;16.90;12.10;;;;;;;;;;4992498;28;20194;-77
2021/10/19 00:29:10;;;;;;;22.00;12.33;;;;;;;;;;4974144;28;20214;-76
2021/10/19 00:32:15;;;;;;;16.03;12.40;;;;;;;;;;4955114;29;20593;-77
2021/10/19 00:35:19;;;;;;;16.07;11.70;;;;;;;;;;4955192;29;20196;-77
2021/10/19 00:38:23;;;;;;;24.50;12.80;;;;;;;;;;4964037;28;20215;-77
2021/10/19 00:41:29;;;;;;;18.80;12.63;;;;;;;;;;4974282;28;20230;-77
2021/10/19 00:44:33;;;;;;;19.10;11.70;;;;;;;;;;4962327;28;20223;-77
2021/10/19 00:47:46;;;;;;;15.40;12.50;;;;;;;;;;4969317;28;20205;-77
2021/10/19 00:50:51;;;;;;;21.27;12.30;;;;;;;;;;4993554;28;20218;-77
2021/10/19 00:53:55;;;;;;;15.30;12.03;;;;;;;;;;4981156;28;20190;-76
2021/10/19 00:57:00;;;;;;;18.77;12.37;;;;;;;;;;4981138;28;20564;-77
2021/10/19 01:00:06;;;;;;;15.53;12.63;;;;;;;;;;4992805;28;20189;-76
2021/10/19 01:03:11;;;;;;;16.73;12.77;;;;;;;;;;4992774;28;20205;-77
2021/10/19 01:06:15;;;;;;;39.50;14.17;;;;;;;;;;4983506;28;20199;-77
2021/10/19 01:09:19;;;;;;;62.63;15.40;;;;;;;;;;4973197;28;20190;-77
2021/10/19 01:12:23;;;;;;;27.83;15.47;;;;;;;;;;4972995;28;20234;-77
2021/10/19 01:15:31;;;;;;;20.27;14.67;;;;;;;;;;4973945;28;20561;-77
2021/10/19 01:18:37;;;;;;;23.43;16.20;;;;;;;;;;4955024;29;20579;-77
2021/10/19 01:21:49;;;;;;;27.73;16.00;;;;;;;;;;4953613;28;20237;-77
2021/10/19 01:24:54;;;;;;;46.43;16.47;;;;;;;;;;4962864;28;20227;-77
2021/10/19 01:28:05;;;;;;;28.73;15.37;;;;;;;;;;4976950;28;20213;-77
2021/10/19 01:31:12;;;;;;;23.67;16.20;;;;;;;;;;4977238;28;20229;-77
2021/10/19 01:34:16;;;;;;;73.63;16.83;;;;;;;;;;4977345;28;20182;-77
2021/10/19 01:37:20;;;;;;;27.23;16.13;;;;;;;;;;4988195;28;20209;-77
2021/10/19 01:40:24;;;;;;;19.87;15.47;;;;;;;;;;4985192;28;20200;-77
2021/10/19 01:43:29;;;;;;;20.33;14.73;;;;;;;;;;4976287;28;20222;-77
2021/10/19 01:46:33;;;;;;;32.93;14.60;;;;;;;;;;4969807;28;20559;-77
2021/10/19 01:49:37;;;;;;;96.40;14.93;;;;;;;;;;4995649;28;20182;-77
2021/10/19 01:52:42;;;;;;;29.20;14.17;;;;;;;;;;4995994;28;20221;-77
2021/10/19 01:55:46;;;;;;;16.60;13.20;;;;;;;;;;4956503;29;20216;-77
2021/10/19 01:58:50;;;;;;;37.40;12.83;;;;;;;;;;4966914;28;20571;-77
2021/10/19 02:01:54;;;;;;;37.67;13.53;;;;;;;;;;4964516;28;20222;-77
2021/10/19 02:04:59;;;;;;;18.60;12.60;;;;;;;;;;4976294;28;20233;-77
2021/10/19 02:08:04;;;;;;;15.87;12.43;;;;;;;;;;4992586;28;20209;-77
2021/10/19 02:11:08;;;;;;;16.33;12.13;;;;;;;;;;4972319;28;20241;-77
2021/10/19 02:14:12;;;;;;;27.27;12.10;;;;;;;;;;4980966;28;20207;-77
2021/10/19 02:17:16;;;;;;;32.27;12.00;;;;;;;;;;4988678;28;20205;-77
2021/10/19 02:20:22;;;;;;;21.13;11.90;;;;;;;;;;4995878;28;20198;-77
2021/10/19 02:23:26;;;;;;;29.00;10.83;;;;;;;;;;4989665;28;20207;-77
2021/10/19 02:26:30;;;;;;;21.97;11.67;;;;;;;;;;4982288;28;20683;-77
2021/10/19 02:29:35;;;;;;;15.23;10.80;;;;;;;;;;4975765;28;20534;-77
2021/10/19 02:32:40;;;;;;;13.97;11.50;;;;;;;;;;4976130;28;20234;-77
2021/10/19 02:35:44;;;;;;;14.23;11.20;;;;;;;;;;4975554;28;20199;-77
2021/10/19 02:38:48;;;;;;;13.30;10.60;;;;;;;;;;4955387;28;20199;-77
2021/10/19 02:41:53;;;;;;;12.83;10.57;;;;;;;;;;4970208;28;20227;-77
2021/10/19 02:44:59;;;;;;;15.87;10.50;;;;;;;;;;4974842;28;20225;-77
2021/10/19 02:48:03;;;;;;;24.23;11.97;;;;;;;;;;4975058;28;20196;-77
2021/10/19 02:51:07;;;;;;;15.30;12.17;;;;;;;;;;4969113;28;20229;-77
2021/10/19 02:54:11;;;;;;;13.67;10.80;;;;;;;;;;4994930;28;20580;-76
2021/10/19 02:57:15;;;;;;;15.60;12.47;;;;;;;;;;4965347;28;20210;-77
2021/10/19 03:00:19;;;;;;;33.27;13.60;;;;;;;;;;4963808;28;20199;-77
2021/10/19 03:03:23;;;;;;;15.60;13.00;;;;;;;;;;4975344;28;20673;-77
2021/10/19 03:06:28;;;;;;;15.63;12.83;;;;;;;;;;4985743;28;20198;-77
2021/10/19 03:09:32;;;;;;;16.20;13.03;;;;;;;;;;4994545;28;20189;-77
2021/10/19 03:12:36;;;;;;;16.40;12.80;;;;;;;;;;4988616;28;20226;-77
2021/10/19 03:15:40;;;;;;;15.30;12.33;;;;;;;;;;4979014;28;20557;-77
2021/10/19 03:18:45;;;;;;;14.87;12.40;;;;;;;;;;4975237;28;20182;-77
2021/10/19 03:21:49;;;;;;;15.60;12.27;;;;;;;;;;4985870;28;20222;-77
2021/10/19 03:24:53;;;;;;;41.73;13.77;;;;;;;;;;4992954;28;20221;-77
2021/10/19 03:27:57;;;;;;;97.53;13.30;;;;;;;;;;4980072;28;20226;-77
2021/10/19 03:31:01;;;;;;;81.53;12.73;;;;;;;;;;4976662;28;20231;-77
2021/10/19 03:34:06;;;;;;;74.20;13.90;;;;;;;;;;4982561;28;20200;-76
2021/10/19 03:37:10;;;;;;;57.93;13.53;;;;;;;;;;4987485;28;20206;-77
2021/10/19 03:40:14;;;;;;;19.30;13.63;;;;;;;;;;4974143;28;20190;-77
2021/10/19 03:43:18;;;;;;;21.37;13.10;;;;;;;;;;4954898;29;20200;-77
2021/10/19 03:46:23;;;;;;;16.43;12.50;;;;;;;;;;4955681;28;20687;-78
2021/10/19 03:49:27;;;;;;;19.23;13.13;;;;;;;;;;4973328;28;20558;-77
2021/10/19 03:52:31;;;;;;;23.03;14.10;;;;;;;;;;4973850;28;20230;-77
2021/10/19 03:55:36;;;;;;;64.27;13.83;;;;;;;;;;4966091;28;20206;-77
2021/10/19 03:58:39;;;;;;;74.80;13.77;;;;;;;;;;4992066;28;20200;-77
2021/10/19 04:01:44;;;;;;;68.73;13.07;;;;;;;;;;4993710;28;20747;-77
2021/10/19 04:04:48;;;;;;;33.50;12.00;;;;;;;;;;4992590;28;20229;-77
2021/10/19 04:07:52;;;;;;;22.30;13.43;;;;;;;;;;4981783;28;20221;-77
2021/10/19 04:10:57;;;;;;;19.83;12.33;;;;;;;;;;4962279;28;20237;-77
2021/10/19 04:14:01;;;;;;;31.53;13.07;;;;;;;;;;4985090;28;20700;-77
2021/10/19 04:17:05;;;;;;;31.83;10.90;;;;;;;;;;4977796;28;20199;-77
2021/10/19 04:20:10;;;;;;;53.40;11.87;;;;;;;;;;4986344;28;20205;-76
2021/10/19 04:23:14;;;;;;;51.13;11.03;;;;;;;;;;4978665;28;20213;-77
2021/10/19 04:26:18;;;;;;;46.87;10.00;;;;;;;;;;4975798;28;20233;-76
2021/10/19 04:29:23;;;;;;;15.40;8.77;;;;;;;;;;4993619;28;20569;-77
2021/10/19 04:32:27;;;;;;;13.57;8.90;;;;;;;;;;4993250;28;20226;-76
2021/10/19 04:35:31;;;;;;;10.37;8.07;;;;;;;;;;4955120;29;20184;-76
2021/10/19 04:38:36;;;;;;;9.80;8.27;;;;;;;;;;4955110;29;20188;-76
2021/10/19 04:41:44;;;;;;;10.47;9.20;;;;;;;;;;4954039;29;20223;-75
2021/10/19 04:44:48;;;;;;;20.13;8.60;;;;;;;;;;4981605;28;20686;-76
2021/10/19 04:47:52;;;;;;;9.43;8.43;;;;;;;;;;4972877;28;20187;-76
2021/10/19 04:50:56;;;;;;;10.77;9.07;;;;;;;;;;4974240;28;20222;-76
2021/10/19 04:54:00;;;;;;;18.80;8.97;;;;;;;;;;4974019;28;20206;-75
2021/10/19 04:57:04;;;;;;;11.33;8.70;;;;;;;;;;4973868;28;20179;-76
2021/10/19 05:00:09;;;;;;;10.33;9.23;;;;;;;;;;4962459;28;20687;-75
2021/10/19 05:03:16;;;;;;;9.93;8.87;;;;;;;;;;4977855;28;20214;-75
2021/10/19 05:06:20;;;;;;;15.53;8.17;;;;;;;;;;4973711;28;20226;-76
2021/10/19 05:09:24;;;;;;;12.27;8.83;;;;;;;;;;4970351;28;20202;-76
2021/10/19 05:12:28;;;;;;;12.13;8.67;;;;;;;;;;4977303;28;20226;-75
2021/10/19 05:15:33;;;;;;;10.20;8.43;;;;;;;;;;4981463;28;20194;-75
2021/10/19 05:18:36;;;;;;;9.70;8.60;;;;;;;;;;4960208;28;20203;-76
2021/10/19 05:21:41;;;;;;;23.00;8.10;;;;;;;;;;4987484;28;20229;-75
2021/10/19 05:24:45;;;;;;;24.00;7.67;;;;;;;;;;4982056;28;20213;-76
2021/10/19 05:27:50;;;;;;;9.07;7.87;;;;;;;;;;4976621;28;20538;-76
2021/10/19 05:30:54;;;;;;;11.47;7.87;;;;;;;;;;4976446;28;20226;-76
2021/10/19 05:33:57;;;;;;;8.87;7.77;;;;;;;;;;4965601;28;20187;-76
2021/10/19 05:37:02;;;;;;;7.77;7.03;;;;;;;;;;4973454;28;20188;-75
2021/10/19 05:40:07;;;;;;;8.33;7.30;;;;;;;;;;4975748;28;20188;-76
2021/10/19 05:43:11;;;;;;;10.57;7.90;;;;;;;;;;4977110;28;20187;-76
2021/10/19 05:46:16;;;;;;;9.07;7.43;;;;;;;;;;4977795;28;20211;-76
2021/10/19 05:49:20;;;;;;;9.37;8.37;;;;;;;;;;4957593;29;20667;-75
2021/10/19 05:52:24;;;;;;;13.63;8.83;;;;;;;;;;4970986;28;20226;-76
2021/10/19 05:55:28;;;;;;;9.70;7.73;;;;;;;;;;4995820;28;20194;-76
2021/10/19 05:58:32;;;;;;;10.63;8.70;;;;;;;;;;4980153;28;20547;-76
2021/10/19 06:01:36;;;;;;;11.80;8.60;;;;;;;;;;4975747;28;20226;-76
2021/10/19 06:04:40;;;;;;;10.40;8.67;;;;;;;;;;4988354;28;20538;-76
2021/10/19 06:07:44;;;;;;;9.60;8.60;;;;;;;;;;4989491;28;20666;-78
2021/10/19 06:10:49;;;;;;;10.30;8.57;;;;;;;;;;4964262;28;20230;-77
2021/10/19 06:13:53;;;;;;;10.30;8.47;;;;;;;;;;4976222;28;20199;-77
2021/10/19 06:16:57;;;;;;;9.47;8.47;;;;;;;;;;4977209;28;20520;-77
2021/10/19 06:20:01;;;;;;;12.03;8.50;;;;;;;;;;4965459;28;20207;-77
2021/10/19 06:23:05;;;;;;;11.27;9.03;;;;;;;;;;4977173;28;20183;-77
2021/10/19 06:26:10;;;;;;;11.67;8.47;;;;;;;;;;4975167;28;20206;-77
2021/10/19 06:29:14;;;;;;;12.30;8.67;;;;;;;;;;4975419;28;20543;-78
2021/10/19 06:32:18;;;;;;;11.00;8.00;;;;;;;;;;4975348;28;20713;-78
2021/10/19 06:35:22;;;;;;;10.77;8.37;;;;;;;;;;4958276;29;20179;-78
2021/10/19 06:38:26;;;;;;;9.00;7.60;;;;;;;;;;4957376;29;20188;-77
2021/10/19 06:41:31;;;;;;;9.33;7.50;;;;;;;;;;4956572;29;20218;-79
2021/10/19 06:44:36;;;;;;;11.40;9.10;;;;;;;;;;4956683;29;20191;-77
2021/10/19 06:47:40;;;;;;;10.80;8.20;;;;;;;;;;4945149;29;20176;-77
2021/10/19 06:50:44;;;;;;;10.20;8.57;;;;;;;;;;4956453;29;20223;-77
2021/10/19 06:53:48;;;;;;;10.70;8.60;;;;;;;;;;4944990;29;20183;-73
2021/10/19 06:56:53;;;;;;;12.33;8.57;;;;;;;;;;4955354;29;20180;-74
2021/10/19 07:00:00;;;;;;;9.90;8.87;;;;;;;;;;4954895;28;20195;-74
2021/10/19 07:03:04;;;;;;;11.47;7.97;;;;;;;;;;4974539;28;20187;-74
2021/10/19 07:06:08;;;;;;;11.03;8.10;;;;;;;;;;4971393;28;20211;-74
2021/10/19 07:09:12;;;;;;;8.80;7.90;;;;;;;;;;4972704;28;20183;-77
2021/10/19 07:12:16;;;;;;;9.23;7.33;;;;;;;;;;4971876;28;20218;-76
2021/10/19 07:15:20;;;;;;;10.23;8.17;;;;;;;;;;4971753;28;20670;-76
2021/10/19 07:18:25;;;;;;;8.63;7.20;;;;;;;;;;4971578;28;20191;-76
2021/10/19 07:21:29;;;;;;;8.40;7.07;;;;;;;;;;4971919;28;20222;-76
2021/10/19 07:24:34;;;;;;;8.53;7.30;;;;;;;;;;4981878;28;20179;-76
2021/10/19 07:27:38;;;;;;;7.73;6.87;;;;;;;;;;4971707;28;20360;-76
2021/10/19 07:30:43;;;;;;;8.67;7.20;;;;;;;;;;4971626;28;20638;-77
2021/10/19 07:33:47;;;;;;;9.53;7.73;;;;;;;;;;4974053;28;20179;-76
2021/10/19 07:36:53;;;;;;;8.73;7.57;;;;;;;;;;4971105;28;20646;-76
2021/10/19 07:39:57;;;;;;;10.03;7.53;;;;;;;;;;4961353;28;20191;-77
2021/10/19 07:43:01;;;;;;;7.77;6.97;;;;;;;;;;4962098;28;20191;-77
2021/10/19 07:46:06;;;;;;;9.47;7.50;;;;;;;;;;4971742;28;20210;-77
2021/10/19 07:49:09;;;;;;;9.13;8.23;;;;;;;;;;4958979;28;20191;-77
2021/10/19 07:52:14;;;;;;;7.83;7.03;;;;;;;;;;4955781;28;20226;-76
2021/10/19 07:55:19;;;;;;;7.13;6.50;;;;;;;;;;4944751;28;20186;-76
2021/10/19 07:58:23;;;;;;;7.97;7.10;;;;;;;;;;4973975;28;20525;-76
2021/10/19 08:01:27;;;;;;;13.20;6.37;;;;;;;;;;4971643;28;20694;-77
2021/10/19 08:04:32;;;;;;;8.00;6.07;;;;;;;;;;4960351;28;20203;-76
2021/10/19 08:07:36;;;;;;;8.53;5.70;;;;;;;;;;4954296;29;20199;-76
2021/10/19 08:10:42;;;;;;;7.83;5.97;;;;;;;;;;4953976;29;20215;-76
2021/10/19 08:13:46;;;;;;;10.70;5.53;;;;;;;;;;4954938;29;20541;-76
2021/10/19 08:16:50;;;;;;;10.47;6.07;;;;;;;;;;4954900;29;20183;-76
2021/10/19 08:20:00;;;;;;;7.77;5.90;;;;;;;;;;4954939;29;20187;-76
2021/10/19 08:23:06;;;;;;;6.90;5.73;;;;;;;;;;4954920;29;20192;-76
2021/10/19 08:26:10;;;;;;;9.33;5.73;;;;;;;;;;4954763;29;20215;-76
2021/10/19 08:29:14;;;;;;;8.37;5.00;;;;;;;;;;4954044;29;20183;-76
2021/10/19 08:32:19;;;;;;;5.53;5.03;;;;;;;;;;4954731;29;20231;-77
2021/10/19 08:35:23;;;;;;;5.80;4.67;;;;;;;;;;4955738;28;20191;-76
2021/10/19 08:38:48;;;;;;;13.90;5.23;;;;;;;;;;4959126;29;20184;-77
2021/10/19 08:41:52;;;;;;;5.43;4.90;;;;;;;;;;4958886;29;20717;-76
2021/10/19 08:44:56;;;;;;;6.33;5.40;;;;;;;;;;4957928;29;20639;-76
2021/10/19 08:48:02;;;;;;;5.83;5.23;;;;;;;;;;4960609;29;20671;-77
2021/10/19 08:51:08;;;;;;;5.77;4.77;;;;;;;;;;4958852;29;20563;-76
2021/10/19 08:54:12;;;;;;;5.60;4.53;;;;;;;;;;4964026;28;20198;-76
2021/10/19 08:57:17;;;;;;;5.43;4.70;;;;;;;;;;4977763;28;20194;-76
2021/10/19 09:00:25;;;;;;;6.30;4.83;;;;;;;;;;4977879;28;20195;-76
2021/10/19 09:03:29;;;;;;;4.50;4.10;;;;;;;;;;4977641;28;20670;-76
2021/10/19 09:06:35;;;;;;;6.73;4.60;;;;;;;;;;4976970;28;20211;-76
2021/10/19 09:09:39;;;;;;;5.23;4.73;;;;;;;;;;4977367;28;20686;-76
2021/10/19 09:12:57;;;;;;;7.17;4.80;;;;;;;;;;4976596;28;20223;-76
2021/10/19 09:16:05;;;;;;;5.80;4.17;;;;;;;;;;4976909;28;20536;-76
2021/10/19 09:19:10;;;;;;;4.57;4.17;;;;;;;;;;4977582;28;20673;-76
2021/10/19 09:22:15;;;;;;;6.00;4.33;;;;;;;;;;4972485;28;20226;-76
2021/10/19 09:25:37;;;;;;;7.53;4.20;;;;;;;;;;4973821;28;20211;-76
2021/10/19 09:28:41;;;;;;;7.40;4.60;;;;;;;;;;4972952;28;20187;-76
2021/10/19 09:31:49;;;;;;;7.03;4.50;;;;;;;;;;4973957;28;20219;-77
2021/10/19 09:34:53;;;;;;;6.00;4.20;;;;;;;;;;4973498;28;20191;-76
2021/10/19 09:38:04;;;;;;;5.37;4.43;;;;;;;;;;4973610;28;20543;-76
2021/10/19 09:41:08;;;;;;;4.83;4.03;;;;;;;;;;4961614;28;20582;-76
2021/10/19 09:44:14;;;;;;;4.00;3.37;;;;;;;;;;4961577;28;20202;-76
2021/10/19 09:47:18;;;;;;;5.80;3.50;;;;;;;;;;4971274;28;20745;-76
2021/10/19 09:50:24;;;;;;;6.53;3.37;;;;;;;;;;4961549;28;20187;-76
2021/10/19 09:53:29;;;;;;;4.37;3.50;;;;;;;;;;4973505;28;20190;-76
2021/10/19 09:56:39;;;;;;;4.10;3.10;;;;;;;;;;4961140;28;20179;-77
2021/10/19 09:59:43;;;;;;;5.17;3.23;;;;;;;;;;4961213;28;20199;-76
2021/10/19 10:02:48;;;;;;;9.03;6.37;;;;;;;;;;4973209;28;20226;-75
2021/10/19 10:05:52;;;;;;;13.73;8.33;;;;;;;;;;4972566;28;20198;-75
2021/10/19 10:08:57;;;;;;;19.83;14.10;;;;;;;;;;4971712;28;20210;-75
2021/10/19 10:12:06;;;;;;;15.87;10.73;;;;;;;;;;4972910;28;20225;-74
2021/10/19 10:15:21;;;;;;;7.53;5.10;;;;;;;;;;4972895;28;20209;-74
2021/10/19 10:18:33;;;;;;;5.53;3.83;;;;;;;;;;4972947;28;20183;-74
2021/10/19 10:21:49;;;;;;;4.17;3.27;;;;;;;;;;4972265;28;20219;-75
2021/10/19 10:25:08;;;;;;;5.10;4.27;;;;;;;;;;4960810;28;20199;-75
2021/10/19 10:28:30;;;;;;;4.10;3.27;;;;;;;;;;4972616;28;20238;-75
2021/10/19 10:31:45;;;;;;;3.93;3.53;;;;;;;;;;4972481;28;20223;-75
2021/10/19 10:35:06;;;;;;;6.90;4.00;;;;;;;;;;4960547;28;20191;-77
2021/10/19 10:38:11;;;;;;;4.40;3.50;;;;;;;;;;4972708;28;20192;-77
2021/10/19 10:41:15;;;;;;;7.90;4.10;;;;;;;;;;4972712;28;20235;-77
2021/10/19 10:44:22;;;;;;;4.53;4.07;;;;;;;;;;4971650;28;20183;-77
2021/10/19 10:47:28;;;;;;;6.37;4.10;;;;;;;;;;4971589;28;20215;-77
2021/10/19 10:50:35;;;;;;;5.23;4.03;;;;;;;;;;4960270;28;20527;-77
2021/10/19 10:53:44;;;;;;;4.27;3.87;;;;;;;;;;4971485;28;20859;-77
2021/10/19 10:56:51;;;;;;;5.70;4.17;;;;;;;;;;4959971;28;20512;-77
2021/10/19 10:59:56;;;;;;;4.27;3.20;;;;;;;;;;4981077;28;20209;-77
2021/10/19 11:03:15;;;;;;;7.93;3.53;;;;;;;;;;4990680;28;20402;-77
2021/10/19 11:06:21;;;;;;;7.80;3.77;;;;;;;;;;4990741;28;20194;-77
2021/10/19 11:09:29;;;;;;;7.03;4.10;;;;;;;;;;4978845;28;20193;-78
2021/10/19 11:12:34;;;;;;;4.07;3.43;;;;;;;;;;4990437;28;20221;-77
2021/10/19 11:15:49;;;;;;;5.10;3.90;;;;;;;;;;4979132;28;20554;-78
2021/10/19 11:18:54;;;;;;;4.00;3.57;;;;;;;;;;4970565;28;20203;-76
2021/10/19 11:22:07;;;;;;;8.60;4.40;;;;;;;;;;4958782;28;20218;-77
2021/10/19 11:25:13;;;;;;;5.33;4.03;;;;;;;;;;4971290;28;20203;-78
2021/10/19 11:28:17;;;;;;;4.93;4.03;;;;;;;;;;4948738;28;20218;-77
2021/10/19 11:31:23;;;;;;;4.90;4.30;;;;;;;;;;4966535;28;20234;-78
2021/10/19 11:34:27;;;;;;;4.43;4.03;;;;;;;;;;4970224;28;20183;-77
2021/10/19 11:37:32;;;;;;;4.40;3.80;;;;;;;;;;4971442;28;20198;-77
2021/10/19 11:40:36;;;;;;;4.87;3.97;;;;;;;;;;4971474;28;20677;-77
2021/10/19 11:43:45;;;;;;;5.17;4.60;;;;;;;;;;4977548;28;20198;-77
2021/10/19 11:46:49;;;;;;;5.53;4.50;;;;;;;;;;4959090;28;20207;-77
2021/10/19 11:49:54;;;;;;;9.00;4.73;;;;;;;;;;4971634;28;20190;-77
2021/10/19 11:53:02;;;;;;;7.50;4.40;;;;;;;;;;4960714;28;20480;-77
2021/10/19 11:56:09;;;;;;;5.30;4.20;;;;;;;;;;4981411;28;20190;-79
2021/10/19 11:59:13;;;;;;;4.77;3.90;;;;;;;;;;4978709;28;20202;-78
2021/10/19 12:02:18;;;;;;;5.57;4.37;;;;;;;;;;4976718;28;20222;-77
2021/10/19 12:05:23;;;;;;;7.33;4.00;;;;;;;;;;4974346;28;20186;-75
2021/10/19 12:08:30;;;;;;;6.73;5.77;;;;;;;;;;4973162;28;20211;-75
2021/10/19 12:11:34;;;;;;;8.07;6.40;;;;;;;;;;4988105;28;20721;-75
2021/10/19 12:14:44;;;;;;;6.87;5.83;;;;;;;;;;4981037;28;20186;-75
2021/10/19 12:18:00;;;;;;;7.90;5.40;;;;;;;;;;4979061;28;20190;-77
2021/10/19 12:21:04;;;;;;;5.10;4.47;;;;;;;;;;4984343;28;20442;-79
2021/10/19 12:24:09;;;;;;;6.23;4.13;;;;;;;;;;4993546;28;22150;-78
2021/10/19 12:27:16;;;;;;;8.87;4.27;;;;;;;;;;4982798;28;20209;-78
2021/10/19 12:30:21;;;;;;;5.70;4.20;;;;;;;;;;4993089;28;20198;-78
2021/10/19 12:33:28;;;;;;;7.17;4.27;;;;;;;;;;4962647;28;20187;-77
2021/10/19 12:36:35;;;;;;;9.47;5.20;;;;;;;;;;4964307;28;20190;-77
2021/10/19 12:39:45;;;;;;;5.70;4.73;;;;;;;;;;4968739;28;20199;-78
2021/10/19 12:42:50;;;;;;;4.70;3.80;;;;;;;;;;4975121;28;20231;-78
2021/10/19 12:45:54;;;;;;;5.10;4.60;;;;;;;;;;4974595;28;20187;-78
2021/10/19 12:48:58;;;;;;;5.73;4.47;;;;;;;;;;4968699;28;20191;-77
2021/10/19 12:52:03;;;;;;;5.83;4.33;;;;;;;;;;4963265;28;20211;-77
2021/10/19 12:55:07;;;;;;;6.37;4.70;;;;;;;;;;4975956;28;20661;-78
2021/10/19 12:58:11;;;;;;;7.03;4.50;;;;;;;;;;4993246;28;20219;-77
2021/10/19 13:01:16;;;;;;;7.10;4.67;;;;;;;;;;4992964;28;20221;-77
2021/10/19 13:04:20;;;;;;;5.80;4.60;;;;;;;;;;4970784;28;20194;-77
2021/10/19 13:07:24;;;;;;;5.40;4.23;;;;;;;;;;4982965;28;20210;-78
2021/10/19 13:10:28;;;;;;;6.50;4.17;;;;;;;;;;4982154;28;20210;-77
2021/10/19 13:13:33;;;;;;;7.47;4.73;;;;;;;;;;4980189;28;20210;-79
2021/10/19 13:16:37;;;;;;;7.90;4.60;;;;;;;;;;4988178;28;20202;-77
2021/10/19 13:19:42;;;;;;;7.63;4.17;;;;;;;;;;4973659;28;20190;-78
2021/10/19 13:22:46;;;;;;;6.57;4.40;;;;;;;;;;4968842;28;20222;-78
2021/10/19 13:25:51;;;;;;;6.73;4.53;;;;;;;;;;4985626;28;20202;-77
2021/10/19 13:28:55;;;;;;;8.50;4.40;;;;;;;;;;4974373;28;20230;-78
2021/10/19 13:31:59;;;;;;;5.10;3.97;;;;;;;;;;4973941;28;20226;-78
2021/10/19 13:35:04;;;;;;;7.03;4.40;;;;;;;;;;4958085;29;20183;-78
2021/10/19 13:38:10;;;;;;;7.17;4.73;;;;;;;;;;4947880;29;20200;-77
2021/10/19 13:41:15;;;;;;;5.23;4.27;;;;;;;;;;4957880;29;20215;-77
2021/10/19 13:44:20;;;;;;;8.73;4.90;;;;;;;;;;4957458;29;20199;-78
2021/10/19 13:47:25;;;;;;;8.27;4.17;;;;;;;;;;4958716;29;20227;-77
2021/10/19 13:50:30;;;;;;;6.97;3.77;;;;;;;;;;4957964;29;20191;-78
2021/10/19 13:53:36;;;;;;;6.63;4.03;;;;;;;;;;4957988;29;20187;-77
2021/10/19 13:56:40;;;;;;;5.50;3.43;;;;;;;;;;4968370;28;20194;-78
2021/10/19 13:59:44;;;;;;;4.60;3.30;;;;;;;;;;4998131;28;20182;-78
2021/10/19 14:02:48;;;;;;;4.97;3.63;;;;;;;;;;4985136;28;20218;-77
2021/10/19 14:05:52;;;;;;;7.13;3.73;;;;;;;;;;4996259;28;20202;-77
2021/10/19 14:08:56;;;;;;;4.90;3.87;;;;;;;;;;4967735;28;20211;-77
2021/10/19 14:12:02;;;;;;;7.50;3.87;;;;;;;;;;4957543;29;20568;-77
2021/10/19 14:15:06;;;;;;;6.77;5.07;;;;;;;;;;4946716;28;20211;-78
2021/10/19 14:18:11;;;;;;;5.23;4.33;;;;;;;;;;4946510;29;20544;-78
2021/10/19 14:21:16;;;;;;;4.67;4.13;;;;;;;;;;4987173;28;20229;-77
2021/10/19 14:24:20;;;;;;;5.50;4.17;;;;;;;;;;4995042;28;20194;-77
2021/10/19 14:27:24;;;;;;;4.57;3.67;;;;;;;;;;4980088;28;20234;-78
2021/10/19 14:30:29;;;;;;;3.93;3.53;;;;;;;;;;4975928;28;20178;-77
2021/10/19 14:33:33;;;;;;;5.27;4.10;;;;;;;;;;4997669;28;20673;-78
2021/10/19 14:36:37;;;;;;;5.73;4.17;;;;;;;;;;4987857;28;20190;-77
2021/10/19 14:39:43;;;;;;;6.87;3.60;;;;;;;;;;4993084;28;20516;-78
2021/10/19 14:42:47;;;;;;;7.60;3.97;;;;;;;;;;4992613;28;20225;-74
2021/10/19 14:45:51;;;;;;;5.40;3.73;;;;;;;;;;4992261;28;20201;-76
2021/10/19 14:48:55;;;;;;;4.90;3.03;;;;;;;;;;4990788;28;20222;-76
2021/10/19 14:51:59;;;;;;;2.80;2.57;;;;;;;;;;4967743;28;20222;-76
2021/10/19 14:55:04;;;;;;;4.07;2.20;;;;;;;;;;4974917;28;20195;-76
2021/10/19 14:58:09;;;;;;;4.60;2.40;;;;;;;;;;4987808;28;20198;-75
2021/10/19 15:01:13;;;;;;;3.70;2.13;;;;;;;;;;4981456;28;20230;-76
2021/10/19 15:04:17;;;;;;;2.80;2.40;;;;;;;;;;4971446;28;20191;-76
2021/10/19 15:07:21;;;;;;;3.10;2.40;;;;;;;;;;4981918;28;20614;-76
2021/10/19 15:10:26;;;;;;;3.77;2.57;;;;;;;;;;4960499;28;20214;-76
2021/10/19 15:13:30;;;;;;;4.10;2.40;;;;;;;;;;4974638;28;20650;-76
2021/10/19 15:16:34;;;;;;;3.93;2.73;;;;;;;;;;4971485;28;20191;-76
2021/10/19 15:19:39;;;;;;;4.20;2.90;;;;;;;;;;4965774;28;20534;-76
2021/10/19 15:22:44;;;;;;;5.40;2.23;;;;;;;;;;4991303;28;20225;-77
2021/10/19 15:25:48;;;;;;;5.73;2.80;;;;;;;;;;4980973;28;20194;-76
2021/10/19 15:28:52;;;;;;;5.27;2.50;;;;;;;;;;4991778;28;20677;-77
2021/10/19 15:31:57;;;;;;;4.70;2.60;;;;;;;;;;4991750;28;20226;-76
2021/10/19 15:35:02;;;;;;;4.57;2.60;;;;;;;;;;4981594;28;20198;-76
2021/10/19 15:38:06;;;;;;;7.33;2.87;;;;;;;;;;4952761;28;20192;-76
2021/10/19 15:41:11;;;;;;;5.03;2.73;;;;;;;;;;4986883;28;20218;-76
2021/10/19 15:44:15;;;;;;;3.10;2.17;;;;;;;;;;4976493;28;20195;-77
2021/10/19 15:47:19;;;;;;;2.57;2.17;;;;;;;;;;4980617;28;20190;-77
2021/10/19 15:50:24;;;;;;;3.63;2.30;;;;;;;;;;4959666;28;20536;-77
2021/10/19 15:53:28;;;;;;;4.77;2.70;;;;;;;;;;4990243;28;20190;-76
2021/10/19 15:56:32;;;;;;;6.20;2.23;;;;;;;;;;4971405;28;20203;-76
2021/10/19 15:59:36;;;;;;;5.70;2.80;;;;;;;;;;4977460;28;20198;-75
2021/10/19 16:02:45;;;;;;;4.07;2.37;;;;;;;;;;4966178;28;20705;-75
2021/10/19 16:05:50;;;;;;;4.57;2.33;;;;;;;;;;4978228;28;20194;-75
2021/10/19 16:08:55;;;;;;;5.00;2.00;;;;;;;;;;4978223;28;20222;-75
2021/10/19 16:12:03;;;;;;;3.07;2.20;;;;;;;;;;4989818;28;20222;-75
2021/10/19 16:15:08;;;;;;;3.43;2.37;;;;;;;;;;4976113;28;20190;-75
2021/10/19 16:18:12;;;;;;;7.30;2.30;;;;;;;;;;4982952;28;20649;-77
2021/10/19 16:21:16;;;;;;;3.30;2.00;;;;;;;;;;4958162;28;20218;-76
2021/10/19 16:24:20;;;;;;;3.03;2.20;;;;;;;;;;4963910;28;20191;-76
2021/10/19 16:27:26;;;;;;;3.43;2.23;;;;;;;;;;4970671;28;20642;-76
2021/10/19 16:30:30;;;;;;;2.67;2.20;;;;;;;;;;4969587;28;20191;-75
2021/10/19 16:33:35;;;;;;;3.27;2.23;;;;;;;;;;4950439;29;20916;-76
2021/10/19 16:36:40;;;;;;;3.03;2.37;;;;;;;;;;4960819;28;20541;-76
2021/10/19 16:39:44;;;;;;;3.23;2.40;;;;;;;;;;4970659;28;20183;-76
2021/10/19 16:42:48;;;;;;;3.23;2.30;;;;;;;;;;4970024;28;20222;-76
2021/10/19 16:45:53;;;;;;;3.90;1.90;;;;;;;;;;4950832;28;20658;-76
2021/10/19 16:48:57;;;;;;;2.87;2.30;;;;;;;;;;4970356;28;20222;-76
2021/10/19 16:52:02;;;;;;;3.93;2.43;;;;;;;;;;4970519;28;20223;-76
2021/10/19 16:55:08;;;;;;;4.80;2.10;;;;;;;;;;4970530;28;20186;-76
2021/10/19 16:58:12;;;;;;;2.93;2.60;;;;;;;;;;4973987;28;20187;-76
2021/10/19 17:01:17;;;;;;;3.90;2.50;;;;;;;;;;4973587;28;20563;-76
2021/10/19 17:04:21;;;;;;;6.87;2.60;;;;;;;;;;4973415;28;20229;-76
2021/10/19 17:07:26;;;;;;;7.57;2.83;;;;;;;;;;4973567;28;20203;-76
2021/10/19 17:10:30;;;;;;;4.40;2.53;;;;;;;;;;4968102;28;20206;-76
2021/10/19 17:13:34;;;;;;;7.27;2.83;;;;;;;;;;4972898;28;20202;-76
2021/10/19 17:16:39;;;;;;;3.50;2.53;;;;;;;;;;4964166;28;20191;-76
2021/10/19 17:19:43;;;;;;;6.03;2.53;;;;;;;;;;4992903;28;20225;-75
2021/10/19 17:22:47;;;;;;;5.23;2.30;;;;;;;;;;4993117;28;20218;-76
2021/10/19 17:25:52;;;;;;;3.47;2.37;;;;;;;;;;4990812;28;20205;-76
2021/10/19 17:28:56;;;;;;;2.87;2.13;;;;;;;;;;4964135;28;20645;-76
2021/10/19 17:32:00;;;;;;;4.30;2.13;;;;;;;;;;4974389;28;20222;-76
2021/10/19 17:35:08;;;;;;;3.27;2.30;;;;;;;;;;4983703;28;20759;-76
2021/10/19 17:38:12;;;;;;;2.97;2.23;;;;;;;;;;4954308;29;20191;-76
2021/10/19 17:41:16;;;;;;;5.67;1.77;;;;;;;;;;4970252;28;20226;-76
2021/10/19 17:44:22;;;;;;;3.20;2.00;;;;;;;;;;4973002;28;20186;-76
2021/10/19 17:47:26;;;;;;;3.10;1.87;;;;;;;;;;4954025;28;20792;-76
2021/10/19 17:50:30;;;;;;;2.30;1.90;;;;;;;;;;4942477;29;20179;-76
2021/10/19 17:53:35;;;;;;;3.23;1.60;;;;;;;;;;4973340;28;20186;-75
2021/10/19 17:56:39;;;;;;;2.37;1.80;;;;;;;;;;4975050;28;20191;-76
2021/10/19 17:59:43;;;;;;;3.63;2.10;;;;;;;;;;4973356;28;20195;-75
2021/10/19 18:02:48;;;;;;;3.03;1.70;;;;;;;;;;4961626;28;20230;-76
2021/10/19 18:05:52;;;;;;;2.60;1.80;;;;;;;;;;4980612;28;20202;-76
2021/10/19 18:08:57;;;;;;;2.67;1.60;;;;;;;;;;4990570;28;20550;-76
2021/10/19 18:12:01;;;;;;;2.77;1.80;;;;;;;;;;4991534;28;20221;-76
2021/10/19 18:15:06;;;;;;;1.70;1.40;;;;;;;;;;4980706;28;20195;-76
2021/10/19 18:18:10;;;;;;;2.97;1.40;;;;;;;;;;4979327;28;20664;-76
2021/10/19 18:21:17;;;;;;;3.23;1.60;;;;;;;;;;4991261;28;20214;-76